Time;durP1;ratioP1;P1;durP2;ratioP2;P2;SDS_P1;SDS_P2;PMS_P1;PMS_P2;Temp;Humidity;BMP_temperature;BMP_pressure;BME280_temperature;BME280_humidity;BME280_pressure;Samples;Min_cycle;Max_cycle;Signal;HPM_P1;HPM_P2
2022/08/19 00:00:52;;;;;;;10.10;9.10;;;;;;;;;;5134958;27;20527;-65
2022/08/19 00:03:19;;;;;;;10.73;8.77;;;;;;;;;;5135595;27;20433;-65
2022/08/19 00:05:46;;;;;;;9.80;8.80;;;;;;;;;;5135333;27;20439;-65
2022/08/19 00:08:13;;;;;;;12.60;8.37;;;;;;;;;;5135541;27;20527;-65
2022/08/19 00:10:41;;;;;;;10.23;9.17;;;;;;;;;;5135519;27;20451;-65
2022/08/19 00:13:10;;;;;;;9.50;8.60;;;;;;;;;;5135047;27;20431;-66
2022/08/19 00:15:37;;;;;;;9.97;8.97;;;;;;;;;;5135516;27;20468;-65
2022/08/19 00:18:04;;;;;;;11.03;9.07;;;;;;;;;;5135239;27;20439;-65
2022/08/19 00:20:32;;;;;;;9.07;8.30;;;;;;;;;;5135903;27;20868;-65
2022/08/19 00:22:59;;;;;;;12.53;9.87;;;;;;;;;;5134907;27;20527;-66
2022/08/19 00:25:26;;;;;;;10.83;8.37;;;;;;;;;;5135608;27;20449;-65
2022/08/19 00:27:53;;;;;;;11.97;9.17;;;;;;;;;;5134910;27;20537;-66
2022/08/19 00:30:22;;;;;;;13.10;10.43;;;;;;;;;;5135081;27;20519;-65
2022/08/19 00:32:50;;;;;;;13.90;9.23;;;;;;;;;;5134811;27;20535;-65
2022/08/19 00:35:18;;;;;;;10.93;9.87;;;;;;;;;;5135037;27;20447;-66
2022/08/19 00:37:45;;;;;;;12.50;10.33;;;;;;;;;;5134714;27;20441;-66
2022/08/19 00:40:13;;;;;;;10.10;9.30;;;;;;;;;;5134893;27;20510;-65
2022/08/19 00:42:40;;;;;;;11.40;10.20;;;;;;;;;;5134663;27;20440;-65
2022/08/19 00:45:11;;;;;;;12.80;11.47;;;;;;;;;;5134486;27;20450;-66
2022/08/19 00:47:40;;;;;;;12.83;10.77;;;;;;;;;;5134631;27;20437;-65
2022/08/19 00:50:09;;;;;;;11.97;10.57;;;;;;;;;;5134468;27;20531;-65
2022/08/19 00:52:39;;;;;;;12.37;10.30;;;;;;;;;;5134815;27;20431;-65
2022/08/19 00:55:09;;;;;;;12.17;10.93;;;;;;;;;;5134413;27;20554;-66
2022/08/19 00:57:41;;;;;;;11.87;9.83;;;;;;;;;;5135343;27;20423;-65
2022/08/19 01:00:11;;;;;;;11.90;9.63;;;;;;;;;;5134288;27;20549;-66
2022/08/19 01:02:40;;;;;;;12.27;10.97;;;;;;;;;;5134318;27;20502;-65
2022/08/19 01:05:09;;;;;;;13.17;10.87;;;;;;;;;;5134240;27;20485;-65
2022/08/19 01:07:37;;;;;;;16.10;11.33;;;;;;;;;;5135071;27;20864;-66
2022/08/19 01:10:05;;;;;;;16.17;11.20;;;;;;;;;;5134664;27;20442;-65
2022/08/19 01:12:33;;;;;;;16.53;11.40;;;;;;;;;;5134477;27;20439;-65
2022/08/19 01:15:00;;;;;;;11.90;10.80;;;;;;;;;;5134836;27;20568;-64
2022/08/19 01:17:28;;;;;;;11.27;9.90;;;;;;;;;;5134401;27;20457;-64
2022/08/19 01:19:56;;;;;;;11.97;10.87;;;;;;;;;;5134115;28;20471;-66
2022/08/19 01:22:31;;;;;;;12.40;11.20;;;;;;;;;;5134643;28;20440;-66
2022/08/19 01:24:58;;;;;;;13.20;11.80;;;;;;;;;;5134098;28;20511;-66
2022/08/19 01:27:26;;;;;;;17.27;11.00;;;;;;;;;;5134441;28;20439;-65
2022/08/19 01:29:53;;;;;;;13.57;10.67;;;;;;;;;;5134025;28;20537;-66
2022/08/19 01:32:20;;;;;;;16.63;11.57;;;;;;;;;;5134992;28;20448;-65
2022/08/19 01:34:47;;;;;;;13.97;12.10;;;;;;;;;;5134376;28;20573;-66
2022/08/19 01:37:16;;;;;;;13.30;11.90;;;;;;;;;;5134189;28;20445;-66
2022/08/19 01:39:44;;;;;;;13.70;11.37;;;;;;;;;;5134071;28;20475;-66
2022/08/19 01:42:12;;;;;;;15.40;11.93;;;;;;;;;;5134369;28;20443;-66
2022/08/19 01:44:40;;;;;;;14.90;11.67;;;;;;;;;;5134452;27;20453;-65
2022/08/19 01:47:08;;;;;;;16.73;12.90;;;;;;;;;;5134043;28;20446;-65
2022/08/19 01:49:36;;;;;;;13.03;11.63;;;;;;;;;;5133862;28;20955;-66
2022/08/19 01:52:05;;;;;;;12.90;11.70;;;;;;;;;;5133900;28;20498;-65
2022/08/19 01:54:32;;;;;;;16.80;12.20;;;;;;;;;;5133763;28;20529;-66
2022/08/19 01:57:03;;;;;;;14.07;12.60;;;;;;;;;;5133841;28;20454;-65
2022/08/19 01:59:30;;;;;;;14.00;12.30;;;;;;;;;;5134226;28;20586;-65
2022/08/19 02:01:58;;;;;;;15.57;12.30;;;;;;;;;;5134105;28;20518;-65
2022/08/19 02:04:26;;;;;;;17.80;11.33;;;;;;;;;;5133960;28;20532;-65
2022/08/19 02:06:54;;;;;;;16.90;11.97;;;;;;;;;;5134062;28;20444;-65
2022/08/19 02:09:21;;;;;;;15.47;13.60;;;;;;;;;;5134480;28;20443;-66
2022/08/19 02:11:49;;;;;;;13.43;12.03;;;;;;;;;;5133712;28;20440;-65
2022/08/19 02:14:17;;;;;;;13.30;11.90;;;;;;;;;;5133663;28;20527;-65
2022/08/19 02:16:44;;;;;;;17.90;12.40;;;;;;;;;;5133658;28;20422;-65
2022/08/19 02:19:12;;;;;;;16.90;11.80;;;;;;;;;;5133834;28;20560;-66
2022/08/19 02:21:39;;;;;;;17.63;12.20;;;;;;;;;;5133510;28;20442;-65
2022/08/19 02:24:07;;;;;;;15.00;12.10;;;;;;;;;;5134680;27;20444;-65
2022/08/19 02:26:34;;;;;;;12.97;11.60;;;;;;;;;;5137201;27;20528;-65
2022/08/19 02:29:02;;;;;;;18.60;13.50;;;;;;;;;;5137231;27;20446;-65
2022/08/19 02:31:30;;;;;;;14.70;13.20;;;;;;;;;;5137446;27;20466;-66
2022/08/19 02:33:58;;;;;;;16.47;12.60;;;;;;;;;;5137155;27;20919;-66
2022/08/19 02:36:26;;;;;;;16.87;13.33;;;;;;;;;;5137430;27;20525;-65
2022/08/19 02:38:53;;;;;;;18.10;14.43;;;;;;;;;;5137344;27;20474;-65
2022/08/19 02:41:22;;;;;;;14.67;13.27;;;;;;;;;;5137249;27;20438;-65
2022/08/19 02:43:49;;;;;;;18.93;13.77;;;;;;;;;;5137048;27;20443;-65
2022/08/19 02:46:20;;;;;;;18.00;12.50;;;;;;;;;;5136794;27;20912;-65
2022/08/19 02:48:49;;;;;;;15.53;11.70;;;;;;;;;;5137451;27;20542;-65
2022/08/19 02:51:20;;;;;;;15.90;12.40;;;;;;;;;;5136804;27;20461;-65
2022/08/19 02:53:47;;;;;;;17.63;13.57;;;;;;;;;;5137117;27;20850;-65
2022/08/19 02:56:15;;;;;;;14.37;12.87;;;;;;;;;;5136644;27;20475;-65
2022/08/19 02:58:42;;;;;;;13.67;12.37;;;;;;;;;;5136875;27;20435;-65
2022/08/19 03:01:10;;;;;;;18.23;14.40;;;;;;;;;;5136545;27;20435;-65
2022/08/19 03:03:38;;;;;;;16.20;13.63;;;;;;;;;;5136609;27;20939;-65
2022/08/19 03:06:08;;;;;;;15.13;13.37;;;;;;;;;;5136761;27;20531;-65
2022/08/19 03:08:36;;;;;;;17.30;14.00;;;;;;;;;;5137073;27;20418;-65
2022/08/19 03:11:03;;;;;;;14.17;12.70;;;;;;;;;;5137188;27;20808;-65
2022/08/19 03:13:30;;;;;;;18.60;12.80;;;;;;;;;;5136500;27;20534;-65
2022/08/19 03:15:57;;;;;;;15.93;12.73;;;;;;;;;;5136857;27;20497;-66
2022/08/19 03:18:26;;;;;;;15.80;13.30;;;;;;;;;;5136700;27;20531;-65
2022/08/19 03:20:54;;;;;;;18.47;13.77;;;;;;;;;;5136311;27;20474;-66
2022/08/19 03:23:23;;;;;;;15.40;13.80;;;;;;;;;;5136265;27;20469;-65
2022/08/19 03:25:51;;;;;;;18.10;13.70;;;;;;;;;;5136196;27;20962;-65
2022/08/19 03:28:19;;;;;;;17.57;15.23;;;;;;;;;;5136414;27;20441;-66
2022/08/19 03:30:57;;;;;;;17.00;15.40;;;;;;;;;;5136302;27;20453;-66
2022/08/19 03:33:24;;;;;;;16.83;15.03;;;;;;;;;;5136095;27;20430;-66
2022/08/19 03:36:01;;;;;;;19.73;15.27;;;;;;;;;;5136355;27;20877;-66
2022/08/19 03:38:30;;;;;;;18.03;16.27;;;;;;;;;;5135971;27;20508;-66
2022/08/19 03:40:57;;;;;;;17.63;14.40;;;;;;;;;;5136043;27;20482;-65
2022/08/19 03:43:24;;;;;;;16.90;15.20;;;;;;;;;;5135897;27;20451;-66
2022/08/19 03:46:01;;;;;;;16.63;14.20;;;;;;;;;;5136013;27;20537;-66
2022/08/19 03:48:29;;;;;;;18.00;14.70;;;;;;;;;;5135780;27;20522;-65
2022/08/19 03:50:58;;;;;;;18.20;15.07;;;;;;;;;;5135908;27;20468;-66
2022/08/19 03:53:25;;;;;;;18.07;14.23;;;;;;;;;;5135587;27;20503;-65
2022/08/19 03:55:54;;;;;;;16.50;14.13;;;;;;;;;;5135494;27;20474;-65
2022/08/19 03:58:21;;;;;;;17.33;14.50;;;;;;;;;;5135777;27;20442;-66
2022/08/19 04:00:48;;;;;;;16.87;14.93;;;;;;;;;;5135954;27;20575;-64
2022/08/19 04:03:18;;;;;;;21.53;16.00;;;;;;;;;;5135640;27;20520;-65
2022/08/19 04:05:45;;;;;;;24.00;16.07;;;;;;;;;;5135938;27;20438;-65
2022/08/19 04:08:12;;;;;;;27.30;17.53;;;;;;;;;;5135577;27;20467;-65
2022/08/19 04:10:41;;;;;;;20.97;15.70;;;;;;;;;;5135219;27;20533;-65
2022/08/19 04:13:10;;;;;;;19.83;15.90;;;;;;;;;;5134238;27;20450;-65
2022/08/19 04:15:41;;;;;;;19.53;17.53;;;;;;;;;;5134498;27;20970;-65
2022/08/19 04:18:08;;;;;;;25.70;16.40;;;;;;;;;;5134675;27;20513;-66
2022/08/19 04:20:40;;;;;;;24.77;17.87;;;;;;;;;;5134857;27;20466;-67
2022/08/19 04:23:07;;;;;;;23.63;17.37;;;;;;;;;;5134396;27;20427;-66
2022/08/19 04:25:36;;;;;;;21.17;18.70;;;;;;;;;;5135225;27;20526;-66
2022/08/19 04:28:04;;;;;;;22.03;19.60;;;;;;;;;;5134942;27;20434;-66
2022/08/19 04:30:32;;;;;;;20.27;18.17;;;;;;;;;;5135127;27;20498;-66
2022/08/19 04:33:00;;;;;;;20.23;18.13;;;;;;;;;;5134782;27;20469;-65
2022/08/19 04:35:27;;;;;;;23.07;18.50;;;;;;;;;;5135122;27;20795;-64
2022/08/19 04:37:54;;;;;;;18.93;15.87;;;;;;;;;;5135127;27;20438;-65
2022/08/19 04:43:06;;;;;;;22.80;17.70;;;;;;;;;;5134606;27;20894;-65
2022/08/19 04:45:35;;;;;;;23.77;18.30;;;;;;;;;;5134975;27;20518;-65
2022/08/19 04:48:02;;;;;;;27.93;19.33;;;;;;;;;;5134423;27;20797;-66
2022/08/19 04:50:29;;;;;;;21.30;18.30;;;;;;;;;;5134765;27;20438;-65
2022/08/19 04:52:56;;;;;;;20.80;18.60;;;;;;;;;;5134099;27;20515;-65
2022/08/19 04:55:25;;;;;;;24.20;18.17;;;;;;;;;;5135067;27;20800;-65
2022/08/19 04:57:52;;;;;;;21.30;18.10;;;;;;;;;;5134602;27;20439;-65
2022/08/19 05:00:19;;;;;;;22.77;20.30;;;;;;;;;;5134736;27;20480;-65
2022/08/19 05:02:48;;;;;;;21.57;19.00;;;;;;;;;;5134605;27;20487;-65
2022/08/19 05:05:16;;;;;;;26.57;20.57;;;;;;;;;;5134608;27;20434;-65
2022/08/19 05:07:43;;;;;;;22.77;20.27;;;;;;;;;;5134525;27;20442;-64
2022/08/19 05:10:11;;;;;;;24.00;20.30;;;;;;;;;;5134274;27;20528;-65
2022/08/19 05:12:38;;;;;;;27.87;21.00;;;;;;;;;;5134055;27;20800;-65
2022/08/19 05:15:08;;;;;;;25.60;21.17;;;;;;;;;;5134525;27;20482;-64
2022/08/19 05:17:35;;;;;;;25.30;20.70;;;;;;;;;;5135026;27;20438;-65
2022/08/19 05:22:49;;;;;;;34.20;20.37;;;;;;;;;;5134258;28;20399;-67
2022/08/19 05:25:19;;;;;;;22.40;17.43;;;;;;;;;;5134153;28;20444;-68
2022/08/19 05:27:46;;;;;;;28.73;18.90;;;;;;;;;;5134487;28;20516;-67
2022/08/19 05:30:14;;;;;;;24.93;17.00;;;;;;;;;;5134075;28;20533;-67
2022/08/19 05:32:41;;;;;;;19.47;16.83;;;;;;;;;;5133978;28;20533;-68
2022/08/19 05:35:11;;;;;;;19.93;16.90;;;;;;;;;;5134010;28;20521;-68
2022/08/19 05:37:39;;;;;;;19.33;15.83;;;;;;;;;;5134198;28;20518;-68
2022/08/19 05:40:07;;;;;;;25.33;17.97;;;;;;;;;;5134347;28;20881;-67
2022/08/19 05:42:34;;;;;;;24.90;16.17;;;;;;;;;;5134152;28;20533;-68
2022/08/19 05:45:02;;;;;;;19.40;15.13;;;;;;;;;;5133792;28;20442;-67
2022/08/19 05:47:29;;;;;;;27.03;16.43;;;;;;;;;;5133780;28;20447;-68
2022/08/19 05:49:56;;;;;;;21.13;14.43;;;;;;;;;;5134625;28;20474;-68
2022/08/19 05:52:26;;;;;;;21.53;14.87;;;;;;;;;;5133742;28;20524;-67
2022/08/19 05:54:55;;;;;;;22.03;16.43;;;;;;;;;;5134242;27;20443;-68
2022/08/19 05:57:22;;;;;;;28.67;16.43;;;;;;;;;;5134192;28;20923;-68
2022/08/19 05:59:51;;;;;;;27.00;17.57;;;;;;;;;;5135932;27;20447;-68
2022/08/19 06:02:18;;;;;;;32.30;17.20;;;;;;;;;;5137747;27;20452;-68
2022/08/19 06:04:45;;;;;;;27.70;18.43;;;;;;;;;;5137640;27;20440;-67
2022/08/19 06:07:12;;;;;;;24.90;18.80;;;;;;;;;;5137993;27;20522;-67
2022/08/19 06:09:41;;;;;;;22.27;17.43;;;;;;;;;;5137561;27;20518;-68
2022/08/19 06:12:08;;;;;;;22.40;17.23;;;;;;;;;;5138046;27;20523;-68
2022/08/19 06:14:36;;;;;;;24.87;17.70;;;;;;;;;;5137918;27;20487;-68
2022/08/19 06:17:04;;;;;;;22.83;19.50;;;;;;;;;;5137699;27;20443;-68
2022/08/19 06:19:31;;;;;;;20.43;16.40;;;;;;;;;;5137628;27;20474;-67
2022/08/19 06:21:59;;;;;;;20.87;16.23;;;;;;;;;;5137621;27;20476;-67
2022/08/19 06:24:27;;;;;;;19.17;17.13;;;;;;;;;;5137575;27;20556;-67
2022/08/19 06:26:57;;;;;;;19.43;15.93;;;;;;;;;;5137740;27;20547;-68
2022/08/19 06:29:24;;;;;;;18.10;16.20;;;;;;;;;;5137722;27;20530;-68
2022/08/19 06:31:53;;;;;;;24.30;18.07;;;;;;;;;;5137640;27;20523;-67
2022/08/19 06:34:21;;;;;;;20.23;16.03;;;;;;;;;;5137386;27;20436;-68
2022/08/19 06:36:49;;;;;;;19.17;17.23;;;;;;;;;;5137919;27;20440;-68
2022/08/19 06:39:17;;;;;;;22.23;17.97;;;;;;;;;;5137232;27;20451;-68
2022/08/19 06:41:46;;;;;;;22.80;17.63;;;;;;;;;;5137316;27;20849;-68
2022/08/19 06:44:15;;;;;;;22.93;16.40;;;;;;;;;;5137151;27;20537;-68
2022/08/19 06:46:42;;;;;;;20.47;16.27;;;;;;;;;;5137252;27;20479;-67
2022/08/19 06:49:13;;;;;;;22.43;17.93;;;;;;;;;;5137101;27;20445;-68
2022/08/19 06:51:41;;;;;;;20.10;17.03;;;;;;;;;;5137212;27;20872;-67
2022/08/19 06:54:08;;;;;;;23.93;17.23;;;;;;;;;;5137025;27;20440;-67
2022/08/19 06:56:35;;;;;;;19.90;17.80;;;;;;;;;;5136737;27;20443;-68
2022/08/19 06:59:03;;;;;;;21.30;16.93;;;;;;;;;;5136599;27;20932;-68
2022/08/19 07:01:31;;;;;;;23.90;17.80;;;;;;;;;;5136931;27;20541;-67
2022/08/19 07:04:01;;;;;;;21.27;17.83;;;;;;;;;;5136513;27;20473;-68
2022/08/19 07:06:30;;;;;;;20.13;17.07;;;;;;;;;;5136842;27;20494;-67
2022/08/19 07:08:58;;;;;;;30.73;18.30;;;;;;;;;;5136370;27;20490;-67
2022/08/19 07:11:26;;;;;;;21.07;18.80;;;;;;;;;;5136553;27;20459;-67
2022/08/19 07:13:54;;;;;;;22.57;16.90;;;;;;;;;;5136477;27;20548;-68
2022/08/19 07:16:22;;;;;;;19.03;17.03;;;;;;;;;;5136962;27;20440;-67
2022/08/19 07:18:51;;;;;;;27.30;17.60;;;;;;;;;;5136163;27;20977;-67
2022/08/19 07:21:19;;;;;;;21.47;17.70;;;;;;;;;;5136414;27;20550;-67
2022/08/19 07:23:46;;;;;;;23.30;17.60;;;;;;;;;;5136092;27;20432;-67
2022/08/19 07:26:17;;;;;;;23.13;16.50;;;;;;;;;;5136519;27;20528;-67
2022/08/19 07:28:44;;;;;;;24.23;16.10;;;;;;;;;;5136005;27;20512;-68
2022/08/19 07:31:13;;;;;;;20.77;16.10;;;;;;;;;;5136011;27;20536;-67
2022/08/19 07:33:41;;;;;;;21.50;15.97;;;;;;;;;;5135969;27;20923;-67
2022/08/19 07:36:12;;;;;;;16.57;14.73;;;;;;;;;;5136381;27;20444;-66
2022/08/19 07:38:40;;;;;;;19.63;15.70;;;;;;;;;;5136567;27;20456;-67
2022/08/19 07:41:07;;;;;;;19.67;16.73;;;;;;;;;;5135939;27;20479;-67
2022/08/19 07:43:35;;;;;;;21.23;16.57;;;;;;;;;;5135924;27;20445;-67
2022/08/19 07:46:02;;;;;;;23.90;16.20;;;;;;;;;;5135662;27;20598;-67
2022/08/19 07:48:29;;;;;;;28.80;17.37;;;;;;;;;;5136033;27;20479;-67
2022/08/19 07:51:01;;;;;;;20.03;15.43;;;;;;;;;;5135862;27;20445;-67
2022/08/19 07:53:31;;;;;;;21.23;15.27;;;;;;;;;;5135683;27;20520;-67
2022/08/19 07:56:03;;;;;;;19.43;16.03;;;;;;;;;;5135889;27;20434;-67
2022/08/19 07:58:31;;;;;;;21.67;15.40;;;;;;;;;;5136336;27;20878;-67
2022/08/19 08:00:59;;;;;;;22.40;16.30;;;;;;;;;;5135361;27;20573;-67
2022/08/19 08:09:10;;;;;;;20.10;15.97;;;;;;;;;;5135350;27;20473;-67
2022/08/19 08:09:17;;;;;;;22.50;16.90;;;;;;;;;;5135423;27;20397;-67
2022/08/19 08:11:49;;;;;;;21.00;15.40;;;;;;;;;;5135272;27;20433;-67
2022/08/19 08:14:16;;;;;;;18.50;16.10;;;;;;;;;;5134343;27;20473;-67
2022/08/19 08:16:45;;;;;;;19.00;15.73;;;;;;;;;;5135086;27;20461;-67
2022/08/19 08:19:14;;;;;;;16.20;14.60;;;;;;;;;;5135499;27;20445;-67
2022/08/19 08:21:42;;;;;;;19.57;14.67;;;;;;;;;;5134747;27;20477;-67
2022/08/19 08:24:11;;;;;;;17.10;14.97;;;;;;;;;;5134730;27;20526;-67
2022/08/19 08:26:38;;;;;;;20.53;12.97;;;;;;;;;;5134825;27;20438;-67
2022/08/19 08:29:07;;;;;;;19.37;14.00;;;;;;;;;;5134761;27;20460;-67
2022/08/19 08:31:35;;;;;;;13.93;12.33;;;;;;;;;;5135172;27;20442;-67
2022/08/19 08:34:03;;;;;;;18.00;14.87;;;;;;;;;;5135222;27;20477;-67
2022/08/19 08:36:33;;;;;;;16.97;15.07;;;;;;;;;;5134990;27;20434;-67
2022/08/19 08:39:00;;;;;;;17.57;15.33;;;;;;;;;;5134791;27;20421;-67
2022/08/19 08:41:32;;;;;;;14.60;13.10;;;;;;;;;;5134816;27;20568;-67
2022/08/19 08:44:00;;;;;;;15.70;13.90;;;;;;;;;;5135420;27;20445;-67
2022/08/19 08:46:31;;;;;;;14.87;13.20;;;;;;;;;;5134841;27;20434;-67
2022/08/19 08:49:05;;;;;;;14.20;12.73;;;;;;;;;;5134662;27;20458;-67
2022/08/19 08:51:35;;;;;;;15.60;14.00;;;;;;;;;;5134518;27;20472;-68
2022/08/19 08:54:03;;;;;;;15.70;12.20;;;;;;;;;;5134526;27;20437;-67
2022/08/19 08:56:32;;;;;;;13.93;12.57;;;;;;;;;;5134342;27;20986;-67
2022/08/19 08:59:01;;;;;;;14.23;12.80;;;;;;;;;;5135310;27;20529;-68
2022/08/19 09:01:28;;;;;;;14.90;11.47;;;;;;;;;;5134651;27;20950;-67
2022/08/19 09:03:56;;;;;;;16.73;15.23;;;;;;;;;;5134639;27;20586;-67
2022/08/19 09:06:27;;;;;;;13.53;12.23;;;;;;;;;;5134591;27;20525;-68
2022/08/19 09:08:59;;;;;;;13.57;11.00;;;;;;;;;;5134622;27;20436;-68
2022/08/19 09:11:31;;;;;;;12.47;11.30;;;;;;;;;;5134650;27;20439;-67
2022/08/19 09:14:08;;;;;;;11.67;10.47;;;;;;;;;;5134534;27;20542;-67
2022/08/19 09:16:35;;;;;;;12.90;11.60;;;;;;;;;;5134180;27;20982;-67
2022/08/19 09:19:04;;;;;;;11.10;10.00;;;;;;;;;;5134556;27;20532;-67
2022/08/19 09:21:32;;;;;;;11.60;9.87;;;;;;;;;;5134342;27;20507;-67
2022/08/19 09:23:59;;;;;;;8.90;7.90;;;;;;;;;;5134452;28;20433;-67
2022/08/19 09:26:26;;;;;;;10.93;8.50;;;;;;;;;;5134055;28;20432;-68
2022/08/19 09:28:54;;;;;;;8.93;8.23;;;;;;;;;;5134370;28;20440;-67
2022/08/19 09:31:24;;;;;;;9.37;7.90;;;;;;;;;;5133971;28;21028;-68
2022/08/19 09:33:51;;;;;;;8.30;7.50;;;;;;;;;;5135900;27;20444;-67
2022/08/19 09:36:19;;;;;;;7.97;7.17;;;;;;;;;;5138509;27;20443;-67
2022/08/19 09:38:47;;;;;;;7.60;6.90;;;;;;;;;;5138243;27;20551;-67
2022/08/19 09:41:15;;;;;;;8.03;7.27;;;;;;;;;;5138618;27;20558;-68
2022/08/19 09:43:43;;;;;;;7.47;6.10;;;;;;;;;;5138418;27;20893;-67
2022/08/19 09:46:11;;;;;;;6.40;5.87;;;;;;;;;;5138323;27;20436;-67
2022/08/19 09:48:40;;;;;;;7.60;7.00;;;;;;;;;;5138235;27;20440;-67
2022/08/19 09:51:11;;;;;;;6.60;6.10;;;;;;;;;;5137931;27;20435;-67
2022/08/19 09:53:39;;;;;;;8.23;5.57;;;;;;;;;;5138343;27;20431;-68
2022/08/19 09:56:07;;;;;;;6.60;6.00;;;;;;;;;;5138727;27;20836;-68
2022/08/19 09:58:34;;;;;;;6.60;6.00;;;;;;;;;;5138361;27;20440;-67
2022/08/19 10:01:02;;;;;;;8.30;6.60;;;;;;;;;;5137937;27;20876;-68
2022/08/19 10:03:31;;;;;;;8.93;7.73;;;;;;;;;;5138544;27;20516;-67
2022/08/19 10:06:00;;;;;;;8.50;7.27;;;;;;;;;;5138042;27;20524;-67
2022/08/19 10:08:29;;;;;;;6.97;6.37;;;;;;;;;;5137729;27;20947;-67
2022/08/19 10:10:57;;;;;;;7.53;6.10;;;;;;;;;;5138421;27;20528;-68
2022/08/19 10:13:25;;;;;;;11.80;7.30;;;;;;;;;;5138017;27;20441;-68
2022/08/19 10:15:53;;;;;;;10.70;6.93;;;;;;;;;;5138024;27;20469;-68
2022/08/19 10:18:22;;;;;;;6.90;6.10;;;;;;;;;;5137492;27;20525;-67
2022/08/19 10:20:50;;;;;;;8.50;7.27;;;;;;;;;;5137772;27;20433;-67
2022/08/19 10:23:19;;;;;;;10.00;7.50;;;;;;;;;;5137277;27;20513;-67
2022/08/19 10:25:47;;;;;;;9.53;7.03;;;;;;;;;;5137356;27;20986;-67
2022/08/19 10:28:15;;;;;;;7.53;6.90;;;;;;;;;;5137539;27;20792;-68
2022/08/19 10:30:42;;;;;;;6.83;6.13;;;;;;;;;;5137216;27;20437;-67
2022/08/19 10:33:09;;;;;;;7.97;7.00;;;;;;;;;;5137133;27;20939;-68
2022/08/19 10:35:37;;;;;;;7.17;6.57;;;;;;;;;;5137575;27;20530;-67
2022/08/19 10:38:04;;;;;;;8.70;7.00;;;;;;;;;;5137213;27;20543;-68
2022/08/19 10:40:33;;;;;;;7.20;6.50;;;;;;;;;;5137403;27;20929;-67
2022/08/19 10:43:00;;;;;;;6.67;6.13;;;;;;;;;;5136762;27;21004;-68
2022/08/19 10:45:27;;;;;;;7.10;5.43;;;;;;;;;;5136141;27;20521;-67
2022/08/19 10:47:55;;;;;;;5.83;5.40;;;;;;;;;;5137109;27;20477;-67
2022/08/19 10:53:08;;;;;;;6.03;4.97;;;;;;;;;;5136895;27;20447;-68
2022/08/19 10:58:25;;;;;;;4.73;4.43;;;;;;;;;;5136796;27;20442;-68
2022/08/19 11:00:53;;;;;;;7.10;4.07;;;;;;;;;;5136653;27;20430;-68
2022/08/19 11:03:20;;;;;;;5.20;4.80;;;;;;;;;;5136440;27;20473;-68
2022/08/19 11:05:48;;;;;;;3.97;3.67;;;;;;;;;;5136593;27;20454;-67
2022/08/19 11:08:16;;;;;;;4.60;4.30;;;;;;;;;;5136403;27;20447;-67
2022/08/19 11:10:44;;;;;;;5.10;4.70;;;;;;;;;;5136484;27;20438;-67
2022/08/19 11:13:12;;;;;;;6.80;4.67;;;;;;;;;;5136317;27;20534;-68
2022/08/19 11:15:39;;;;;;;5.93;5.10;;;;;;;;;;5136823;27;20892;-68
2022/08/19 11:18:08;;;;;;;6.00;5.33;;;;;;;;;;5136153;27;20533;-68
2022/08/19 11:20:35;;;;;;;6.63;6.03;;;;;;;;;;5136308;27;20502;-68
2022/08/19 11:23:02;;;;;;;6.60;6.00;;;;;;;;;;5136364;27;20480;-68
2022/08/19 11:25:29;;;;;;;6.13;5.63;;;;;;;;;;5136162;27;20476;-67
2022/08/19 11:27:58;;;;;;;5.47;5.03;;;;;;;;;;5136356;27;20442;-67
2022/08/19 11:30:25;;;;;;;6.53;5.93;;;;;;;;;;5136731;27;20892;-67
2022/08/19 11:32:52;;;;;;;5.60;5.10;;;;;;;;;;5136605;27;20442;-67
2022/08/19 11:35:19;;;;;;;6.87;6.03;;;;;;;;;;5136691;27;20444;-67
2022/08/19 11:37:47;;;;;;;7.63;5.87;;;;;;;;;;5136473;27;20455;-67
2022/08/19 11:40:14;;;;;;;5.40;5.00;;;;;;;;;;5136337;27;20442;-67
2022/08/19 11:42:56;;;;;;;5.73;5.23;;;;;;;;;;5136174;27;20468;-67
2022/08/19 11:45:25;;;;;;;6.33;5.83;;;;;;;;;;5136117;27;20978;-67
2022/08/19 11:47:52;;;;;;;6.10;5.70;;;;;;;;;;5135669;27;20529;-67
2022/08/19 11:50:20;;;;;;;8.23;5.50;;;;;;;;;;5135732;27;21006;-67
2022/08/19 11:52:49;;;;;;;6.53;5.93;;;;;;;;;;5135920;27;20516;-66
2022/08/19 11:55:16;;;;;;;6.40;5.80;;;;;;;;;;5135594;27;20439;-68
2022/08/19 11:57:44;;;;;;;7.87;7.07;;;;;;;;;;5134369;27;20477;-68
2022/08/19 12:00:13;;;;;;;8.10;6.63;;;;;;;;;;5135787;27;20437;-67
2022/08/19 12:02:42;;;;;;;8.37;7.57;;;;;;;;;;5135684;27;20821;-68
2022/08/19 12:05:09;;;;;;;7.57;6.87;;;;;;;;;;5135774;27;20446;-68
2022/08/19 12:07:37;;;;;;;8.90;8.00;;;;;;;;;;5135320;27;20519;-67
2022/08/19 12:10:04;;;;;;;9.53;8.60;;;;;;;;;;5135910;27;20447;-68
2022/08/19 12:12:31;;;;;;;12.73;7.87;;;;;;;;;;5135914;27;20534;-68
2022/08/19 12:14:59;;;;;;;9.90;9.03;;;;;;;;;;5135598;27;20970;-68
2022/08/19 12:17:30;;;;;;;8.97;8.17;;;;;;;;;;5135417;27;20957;-68
2022/08/19 12:19:59;;;;;;;10.17;9.13;;;;;;;;;;5135893;27;20421;-67
2022/08/19 12:22:27;;;;;;;9.67;8.70;;;;;;;;;;5135568;27;20573;-68
2022/08/19 12:24:54;;;;;;;13.07;10.63;;;;;;;;;;5135220;27;20443;-67
2022/08/19 12:27:22;;;;;;;10.23;9.17;;;;;;;;;;5135490;27;20449;-67
2022/08/19 12:29:49;;;;;;;9.60;8.80;;;;;;;;;;5134953;27;20454;-67
2022/08/19 12:32:17;;;;;;;10.60;9.70;;;;;;;;;;5134841;27;20549;-67
2022/08/19 12:34:44;;;;;;;11.67;10.67;;;;;;;;;;5134802;27;20512;-67
2022/08/19 12:37:12;;;;;;;10.43;9.43;;;;;;;;;;5134827;27;20458;-67
2022/08/19 12:39:41;;;;;;;9.50;8.63;;;;;;;;;;5134643;27;20535;-67
2022/08/19 12:42:09;;;;;;;9.90;9.00;;;;;;;;;;5134597;27;20474;-67
2022/08/19 12:44:36;;;;;;;10.37;9.37;;;;;;;;;;5135169;27;20532;-68
2022/08/19 12:47:04;;;;;;;8.23;7.63;;;;;;;;;;5135526;27;20829;-68
2022/08/19 12:49:33;;;;;;;10.30;7.93;;;;;;;;;;5135056;27;20467;-67
2022/08/19 12:52:00;;;;;;;7.90;7.20;;;;;;;;;;5134555;27;20508;-68
2022/08/19 12:54:30;;;;;;;8.17;7.47;;;;;;;;;;5134837;27;20479;-69
2022/08/19 12:56:57;;;;;;;7.93;7.27;;;;;;;;;;5135146;27;20433;-65
2022/08/19 12:59:25;;;;;;;9.30;7.70;;;;;;;;;;5134461;27;20967;-65
2022/08/19 13:01:52;;;;;;;8.40;7.60;;;;;;;;;;5134390;27;20506;-66
2022/08/19 13:04:19;;;;;;;7.53;6.90;;;;;;;;;;5134290;27;20526;-66
2022/08/19 13:06:46;;;;;;;7.90;7.10;;;;;;;;;;5134653;27;20522;-65
2022/08/19 13:09:14;;;;;;;7.30;6.60;;;;;;;;;;5133894;27;20450;-65
2022/08/19 13:11:43;;;;;;;9.73;7.13;;;;;;;;;;5135048;27;20546;-66
2022/08/19 13:14:11;;;;;;;6.43;5.80;;;;;;;;;;5134162;27;20881;-66
2022/08/19 13:16:38;;;;;;;6.03;5.03;;;;;;;;;;5135014;27;20450;-66
2022/08/19 13:19:07;;;;;;;6.03;5.53;;;;;;;;;;5134228;27;20950;-66
2022/08/19 13:21:34;;;;;;;6.53;5.40;;;;;;;;;;5134191;27;20478;-66
2022/08/19 13:24:02;;;;;;;6.10;5.60;;;;;;;;;;5134034;28;20481;-67
2022/08/19 13:26:29;;;;;;;5.40;4.90;;;;;;;;;;5133500;28;20441;-67
2022/08/19 13:34:30;;;;;;;8.07;7.13;;;;;;;;;;5133476;28;20402;-67
2022/08/19 13:36:57;;;;;;;8.00;7.20;;;;;;;;;;5133874;28;20803;-66
2022/08/19 13:39:24;;;;;;;7.60;6.90;;;;;;;;;;5133769;28;20531;-67
2022/08/19 13:41:51;;;;;;;7.27;6.60;;;;;;;;;;5133687;28;20527;-66
2022/08/19 13:44:20;;;;;;;6.97;6.37;;;;;;;;;;5133488;28;20554;-65
2022/08/19 13:46:48;;;;;;;8.70;6.87;;;;;;;;;;5133613;28;20525;-65
2022/08/19 13:49:16;;;;;;;7.90;7.10;;;;;;;;;;5134083;28;20443;-66
2022/08/19 13:51:43;;;;;;;7.50;6.90;;;;;;;;;;5133859;28;20912;-66
2022/08/19 13:54:11;;;;;;;8.07;7.37;;;;;;;;;;5133592;28;20456;-67
2022/08/19 13:56:42;;;;;;;24.13;9.00;;;;;;;;;;5134156;28;20412;-66
2022/08/19 13:59:09;;;;;;;10.43;7.03;;;;;;;;;;5134575;28;20494;-67
2022/08/19 14:01:38;;;;;;;9.40;6.40;;;;;;;;;;5134102;28;20452;-66
2022/08/19 14:04:06;;;;;;;28.00;10.63;;;;;;;;;;5134115;28;20450;-66
2022/08/19 14:06:33;;;;;;;7.33;6.73;;;;;;;;;;5133446;28;20894;-67
2022/08/19 14:09:01;;;;;;;7.80;7.17;;;;;;;;;;5133855;28;20441;-67
2022/08/19 14:11:32;;;;;;;9.37;7.00;;;;;;;;;;5133644;27;20832;-67
2022/08/19 14:13:59;;;;;;;7.87;7.07;;;;;;;;;;5133594;28;20523;-67
2022/08/19 14:16:27;;;;;;;7.97;6.80;;;;;;;;;;5133797;28;20806;-67
2022/08/19 14:18:55;;;;;;;7.37;6.83;;;;;;;;;;5133600;28;20445;-67
2022/08/19 14:21:24;;;;;;;7.30;6.60;;;;;;;;;;5135591;27;20418;-66
2022/08/19 14:23:51;;;;;;;7.93;7.23;;;;;;;;;;5137562;27;20929;-67
2022/08/19 14:26:19;;;;;;;7.60;6.90;;;;;;;;;;5137116;27;20461;-66
2022/08/19 14:28:47;;;;;;;7.70;7.10;;;;;;;;;;5137306;27;20535;-66
2022/08/19 14:31:16;;;;;;;7.37;6.33;;;;;;;;;;5137133;27;20530;-66
2022/08/19 14:33:43;;;;;;;7.40;6.80;;;;;;;;;;5137620;27;20425;-66
2022/08/19 14:36:12;;;;;;;7.53;6.80;;;;;;;;;;5137359;27;20443;-66
2022/08/19 14:38:40;;;;;;;6.67;6.10;;;;;;;;;;5136905;27;20444;-66
2022/08/19 14:41:08;;;;;;;8.50;7.30;;;;;;;;;;5137225;27;20430;-66
2022/08/19 14:43:35;;;;;;;7.80;7.10;;;;;;;;;;5136819;27;20490;-66
2022/08/19 14:46:03;;;;;;;10.27;6.53;;;;;;;;;;5136808;27;20429;-67
2022/08/19 14:48:30;;;;;;;7.60;6.90;;;;;;;;;;5137434;27;20877;-67
2022/08/19 14:50:58;;;;;;;7.13;6.53;;;;;;;;;;5137323;27;20859;-67